Portada
METAR-TAF:

METAR-TAF

Aeroports :

Khartum, Sudan

latitud: 15-36N, longitud: 032-33E, altitud: 382 m

Observació

L'informe es va fer fa 32 minuts, a les 22:30 UTC
Vent 10 kt del Nord-Est
Temperatura 32°C
Humitat 34%
Pressió 1011 hPa
Visibilitat 10 km o més
tempesta

METAR: HSSS 242230Z 04010KT 9999 FEW 050 CB TS TO W 32/14 Q1011 NOSIG

Hora: 02:02 (23:02 UTC)

Pronòstic

L'informe es va fer fa 6 hores i 2 minuts, a les 17:00 UTC
Pronòstic vàlid del 24 a les 18 UTC al 25 a les 24 UTC
Vent 8 kt del Sud amb ràfegues de 18 kt
Visibilitat 10 km o més
Escasses núvols a una alçada de 4000 ft
Núvols disperses a una alçada de 14000 ft
Probabilitat 30% :
Temporalment
l' 24 a les 20 UTC al 24 a les 24 UTC
Visibilitat: 6000 m
Escasses núvols a una alçada de 4000 ft, Cumulonimbus.
tempesta, pluja

TAF: HSSS 241700Z 2418/2524 18008G18KT 9999 FEW040 SCT140 PROB30 TEMPO 2420/2424 6000 TSRA FEW040CB

Observacions i pronòstics meteorològics de més de 4000 aeroports (METAR i TAF).

Les estacions disponibles són els punts grocs i vermells al mapa.

Posi el ratolí al punt desitjat per veure el nom de l'estació.

Feu clic per veure les observacions i els pronòstics meteorològics.

Per canviar el mapa: feu clic els botons verds amb una creu de color negre per apropar; al botó verd amb un guió per allunyar la imatge; o en les fletxes verdes per a mapes adjacents.


METAR-TAF: